Time;durP1;ratioP1;P1;durP2;ratioP2;P2;SDS_P1;SDS_P2;PMS_P1;PMS_P2;Temp;Humidity;BMP_temperature;BMP_pressure;BME280_temperature;BME280_humidity;BME280_pressure;Samples;Min_cycle;Max_cycle;Signal;HPM_P1;HPM_P2
2023/04/23 00:00:45;;;;;;;0.70;0.60;;;;;;;;;;5004819;28;20967;-77
2023/04/23 00:03:13;;;;;;;0.70;0.60;;;;;;;;;;5002265;28;20919;-77
2023/04/23 00:05:42;;;;;;;0.60;0.60;;;;;;;;;;5004438;28;20526;-77
2023/04/23 00:08:09;;;;;;;0.70;0.60;;;;;;;;;;5006882;28;20845;-77
2023/04/23 00:10:36;;;;;;;0.70;0.70;;;;;;;;;;5005283;28;21004;-75
2023/04/23 00:13:03;;;;;;;1.33;1.23;;;;;;;;;;5001248;28;20466;-76
2023/04/23 00:15:30;;;;;;;0.70;0.60;;;;;;;;;;5000672;28;20444;-77
2023/04/23 00:17:56;;;;;;;0.70;0.60;;;;;;;;;;5008824;28;20436;-78
2023/04/23 00:20:23;;;;;;;0.70;0.60;;;;;;;;;;5004280;28;20459;-77
2023/04/23 00:22:51;;;;;;;0.70;0.60;;;;;;;;;;5004976;28;21020;-76
2023/04/23 00:25:18;;;;;;;0.70;0.60;;;;;;;;;;5004514;28;20932;-76
2023/04/23 00:27:44;;;;;;;0.70;0.60;;;;;;;;;;5005639;28;20448;-77
2023/04/23 00:30:11;;;;;;;0.70;0.60;;;;;;;;;;5001155;28;20954;-78
2023/04/23 00:32:38;;;;;;;0.70;0.60;;;;;;;;;;4992034;28;20459;-74
2023/04/23 00:35:05;;;;;;;0.70;0.70;;;;;;;;;;5003932;28;20457;-77
2023/04/23 00:37:32;;;;;;;0.70;0.60;;;;;;;;;;5007974;28;20892;-75
2023/04/23 00:40:01;;;;;;;0.70;0.60;;;;;;;;;;5006004;28;20453;-77
2023/04/23 00:42:29;;;;;;;0.60;0.60;;;;;;;;;;5008953;28;20484;-76
2023/04/23 00:44:55;;;;;;;0.70;0.60;;;;;;;;;;5008792;28;21017;-77
2023/04/23 00:47:22;;;;;;;1.30;1.20;;;;;;;;;;5007474;28;20470;-75
2023/04/23 00:49:49;;;;;;;0.70;0.60;;;;;;;;;;5010620;28;20949;-74
2023/04/23 00:52:16;;;;;;;0.70;0.60;;;;;;;;;;5009673;28;20487;-78
2023/04/23 00:54:43;;;;;;;0.70;0.70;;;;;;;;;;5005773;28;20482;-77
2023/04/23 00:57:11;;;;;;;0.70;0.60;;;;;;;;;;5011725;28;20488;-76
2023/04/23 00:59:38;;;;;;;0.70;0.60;;;;;;;;;;4988268;28;20436;-75
2023/04/23 01:02:04;;;;;;;0.60;0.60;;;;;;;;;;5005763;28;20450;-76
2023/04/23 01:04:31;;;;;;;1.03;0.93;;;;;;;;;;5009546;28;20431;-75
2023/04/23 01:06:58;;;;;;;0.70;0.70;;;;;;;;;;5006955;28;20486;-76
2023/04/23 01:09:26;;;;;;;0.70;0.70;;;;;;;;;;5002217;28;20561;-76
2023/04/23 01:11:53;;;;;;;0.70;0.60;;;;;;;;;;5006608;28;20469;-77
2023/04/23 01:14:21;;;;;;;0.70;0.70;;;;;;;;;;5005110;28;20542;-76
2023/04/23 01:16:48;;;;;;;0.70;0.60;;;;;;;;;;5006008;28;20448;-76
2023/04/23 01:19:14;;;;;;;0.70;0.60;;;;;;;;;;5012978;28;20452;-75
2023/04/23 01:21:41;;;;;;;0.70;0.70;;;;;;;;;;5005152;28;20476;-75
2023/04/23 01:24:10;;;;;;;0.70;0.60;;;;;;;;;;5008292;28;20541;-77
2023/04/23 01:26:37;;;;;;;0.70;0.70;;;;;;;;;;5001582;28;20900;-76
2023/04/23 01:29:04;;;;;;;0.70;0.70;;;;;;;;;;5008253;28;20542;-75
2023/04/23 01:31:31;;;;;;;0.70;0.60;;;;;;;;;;5004830;28;20532;-76
2023/04/23 01:33:59;;;;;;;0.70;0.60;;;;;;;;;;5006026;28;20476;-75
2023/04/23 01:36:26;;;;;;;0.70;0.60;;;;;;;;;;5007538;28;20449;-76
2023/04/23 01:38:52;;;;;;;0.70;0.60;;;;;;;;;;5015938;28;20456;-76
2023/04/23 01:41:20;;;;;;;0.70;0.60;;;;;;;;;;5010621;28;20433;-78
2023/04/23 01:43:47;;;;;;;0.70;0.60;;;;;;;;;;5015730;28;20440;-75
2023/04/23 01:46:15;;;;;;;0.70;0.60;;;;;;;;;;5013331;28;20440;-77
2023/04/23 01:48:42;;;;;;;0.70;0.60;;;;;;;;;;5016408;28;20441;-76
2023/04/23 01:51:10;;;;;;;1.77;1.07;;;;;;;;;;5020224;28;20454;-75
2023/04/23 01:53:37;;;;;;;0.70;0.70;;;;;;;;;;5017740;28;20546;-74
2023/04/23 01:56:04;;;;;;;0.67;0.60;;;;;;;;;;5011379;28;20446;-76
2023/04/23 01:58:31;;;;;;;0.70;0.60;;;;;;;;;;5012642;28;20446;-77
2023/04/23 02:00:58;;;;;;;0.70;0.70;;;;;;;;;;5010571;28;20788;-76
2023/04/23 02:03:25;;;;;;;0.70;0.70;;;;;;;;;;5011857;28;20436;-77
2023/04/23 02:05:53;;;;;;;0.60;0.60;;;;;;;;;;5018878;28;20455;-77
2023/04/23 02:08:20;;;;;;;0.60;0.50;;;;;;;;;;4996003;28;20468;-77
2023/04/23 02:10:46;;;;;;;0.70;0.60;;;;;;;;;;5016328;28;20443;-75
2023/04/23 02:13:13;;;;;;;0.70;0.60;;;;;;;;;;4996076;28;20626;-76
2023/04/23 02:15:42;;;;;;;0.80;0.80;;;;;;;;;;5018777;28;20467;-77
2023/04/23 02:18:09;;;;;;;0.80;0.80;;;;;;;;;;4994619;28;20444;-77
2023/04/23 02:20:39;;;;;;;0.90;0.90;;;;;;;;;;5014111;28;20476;-77
2023/04/23 02:23:06;;;;;;;0.70;0.60;;;;;;;;;;5022574;28;20488;-78
2023/04/23 02:25:33;;;;;;;0.60;0.60;;;;;;;;;;5020842;28;20435;-75
2023/04/23 02:28:04;;;;;;;0.70;0.60;;;;;;;;;;5011228;28;20437;-78
2023/04/23 02:30:30;;;;;;;0.67;0.60;;;;;;;;;;5008175;28;20439;-75
2023/04/23 02:32:58;;;;;;;0.60;0.60;;;;;;;;;;5006904;28;20462;-77
2023/04/23 02:35:25;;;;;;;0.67;0.60;;;;;;;;;;5009913;28;20444;-78
2023/04/23 02:37:53;;;;;;;0.70;0.70;;;;;;;;;;5008280;28;20489;-76
2023/04/23 02:40:19;;;;;;;1.83;0.90;;;;;;;;;;5007942;28;20451;-76
2023/04/23 02:42:46;;;;;;;0.63;0.60;;;;;;;;;;5016934;28;20458;-77
2023/04/23 02:45:13;;;;;;;0.67;0.60;;;;;;;;;;5017030;28;20447;-76
2023/04/23 02:47:39;;;;;;;0.60;0.60;;;;;;;;;;5014861;28;20514;-77
2023/04/23 02:50:08;;;;;;;0.60;0.60;;;;;;;;;;5015621;28;20500;-77
2023/04/23 02:52:35;;;;;;;0.70;0.60;;;;;;;;;;5010577;28;20470;-76
2023/04/23 02:55:02;;;;;;;0.70;0.60;;;;;;;;;;5002100;28;20479;-76
2023/04/23 02:57:29;;;;;;;1.13;1.07;;;;;;;;;;5021457;28;20430;-75
2023/04/23 02:59:56;;;;;;;0.70;0.70;;;;;;;;;;5018666;28;20445;-75
2023/04/23 03:02:29;;;;;;;1.43;1.33;;;;;;;;;;5022771;28;20453;-77
2023/04/23 03:04:56;;;;;;;0.60;0.57;;;;;;;;;;5022510;28;20448;-75
2023/04/23 03:07:25;;;;;;;0.63;0.60;;;;;;;;;;5027029;28;20820;-76
2023/04/23 03:09:51;;;;;;;0.60;0.60;;;;;;;;;;5020027;28;20477;-76
2023/04/23 03:12:18;;;;;;;1.00;1.00;;;;;;;;;;5019010;28;20537;-77
2023/04/23 03:14:44;;;;;;;0.97;0.97;;;;;;;;;;5020509;28;20466;-76
2023/04/23 03:17:11;;;;;;;0.60;0.60;;;;;;;;;;5014581;28;20450;-75
2023/04/23 03:19:38;;;;;;;0.60;0.60;;;;;;;;;;5010994;28;20439;-78
2023/04/23 03:22:05;;;;;;;0.60;0.60;;;;;;;;;;5011695;28;20468;-77
2023/04/23 03:24:33;;;;;;;1.00;0.90;;;;;;;;;;5013249;28;20479;-77
2023/04/23 03:27:00;;;;;;;0.60;0.60;;;;;;;;;;5035644;28;20920;-78
2023/04/23 03:29:27;;;;;;;0.60;0.60;;;;;;;;;;5001190;28;20827;-76
2023/04/23 03:31:55;;;;;;;0.70;0.63;;;;;;;;;;5028383;28;20443;-76
2023/04/23 03:34:22;;;;;;;0.60;0.60;;;;;;;;;;5009214;28;20497;-76
2023/04/23 03:36:49;;;;;;;0.60;0.60;;;;;;;;;;5017087;28;20434;-76
2023/04/23 03:39:16;;;;;;;1.23;1.13;;;;;;;;;;5011321;28;20455;-75
2023/04/23 03:41:49;;;;;;;0.70;0.70;;;;;;;;;;5027146;28;20450;-77
2023/04/23 03:44:20;;;;;;;1.07;1.00;;;;;;;;;;5024325;28;20446;-77
2023/04/23 03:46:48;;;;;;;1.00;0.90;;;;;;;;;;5032884;28;20497;-75
2023/04/23 03:49:16;;;;;;;0.80;0.80;;;;;;;;;;5024698;28;20470;-79
2023/04/23 03:51:43;;;;;;;0.60;0.50;;;;;;;;;;5031005;28;20442;-76
2023/04/23 03:54:10;;;;;;;0.60;0.60;;;;;;;;;;5022464;28;21029;-76
2023/04/23 03:56:56;;;;;;;0.60;0.50;;;;;;;;;;5024145;28;20429;-77
2023/04/23 03:59:28;;;;;;;0.93;0.80;;;;;;;;;;5025347;28;20438;-76
2023/04/23 04:01:57;;;;;;;0.60;0.60;;;;;;;;;;5020464;28;20448;-76
2023/04/23 04:04:25;;;;;;;0.60;0.50;;;;;;;;;;5023289;28;20493;-76
2023/04/23 04:06:54;;;;;;;0.60;0.60;;;;;;;;;;5023099;28;20475;-75
2023/04/23 04:09:25;;;;;;;0.60;0.60;;;;;;;;;;5024029;28;20460;-78
2023/04/23 04:11:52;;;;;;;0.67;0.60;;;;;;;;;;5026803;28;20452;-78
2023/04/23 04:14:21;;;;;;;3.47;1.00;;;;;;;;;;5024258;28;20489;-76
2023/04/23 04:16:47;;;;;;;1.80;1.17;;;;;;;;;;5025155;28;20491;-76
2023/04/23 04:19:15;;;;;;;0.60;0.60;;;;;;;;;;5016445;28;20439;-75
2023/04/23 04:21:41;;;;;;;0.60;0.60;;;;;;;;;;5021439;28;20487;-76
2023/04/23 04:24:10;;;;;;;0.70;0.70;;;;;;;;;;5019695;28;20432;-77
2023/04/23 04:26:36;;;;;;;1.00;1.00;;;;;;;;;;5024521;28;20436;-77
2023/04/23 04:29:03;;;;;;;0.60;0.60;;;;;;;;;;5022074;28;20439;-76
2023/04/23 04:31:31;;;;;;;0.60;0.60;;;;;;;;;;5025987;28;20428;-77
2023/04/23 04:33:58;;;;;;;0.60;0.60;;;;;;;;;;5021383;28;20470;-77
2023/04/23 04:36:28;;;;;;;0.60;0.60;;;;;;;;;;5021835;28;20441;-76
2023/04/23 04:38:57;;;;;;;0.60;0.60;;;;;;;;;;5019808;28;20466;-76
2023/04/23 04:41:27;;;;;;;0.60;0.60;;;;;;;;;;5011556;28;20440;-76
2023/04/23 04:43:53;;;;;;;0.60;0.60;;;;;;;;;;5017838;28;20436;-75
2023/04/23 04:46:20;;;;;;;2.63;1.67;;;;;;;;;;5021593;28;20512;-77
2023/04/23 04:48:48;;;;;;;0.60;0.60;;;;;;;;;;5018639;28;20449;-75
2023/04/23 04:51:14;;;;;;;0.60;0.60;;;;;;;;;;5020156;28;20540;-76
2023/04/23 04:53:41;;;;;;;0.60;0.60;;;;;;;;;;5017139;28;20456;-76
2023/04/23 04:56:08;;;;;;;0.70;0.60;;;;;;;;;;5017554;28;20442;-77
2023/04/23 04:58:35;;;;;;;0.70;0.70;;;;;;;;;;5025281;28;20450;-78
2023/04/23 05:01:01;;;;;;;0.60;0.50;;;;;;;;;;5022594;28;20440;-76
2023/04/23 05:03:28;;;;;;;0.60;0.60;;;;;;;;;;5013466;28;20448;-76
2023/04/23 05:05:59;;;;;;;0.60;0.60;;;;;;;;;;5019009;28;20453;-76
2023/04/23 05:08:26;;;;;;;0.60;0.60;;;;;;;;;;5016947;28;20463;-77
2023/04/23 05:10:55;;;;;;;8.23;5.70;;;;;;;;;;5027012;28;20502;-77
2023/04/23 05:13:22;;;;;;;0.60;0.60;;;;;;;;;;5020049;28;20445;-76
2023/04/23 05:15:48;;;;;;;0.70;0.70;;;;;;;;;;5022064;28;20495;-77
2023/04/23 05:18:15;;;;;;;0.70;0.70;;;;;;;;;;5015849;28;20528;-77
2023/04/23 05:20:41;;;;;;;2.20;2.10;;;;;;;;;;5019690;28;20524;-78
2023/04/23 05:23:10;;;;;;;0.70;0.63;;;;;;;;;;5018967;28;20551;-76
2023/04/23 05:25:36;;;;;;;0.60;0.60;;;;;;;;;;5004485;28;20441;-78
2023/04/23 05:28:03;;;;;;;0.60;0.60;;;;;;;;;;5011073;28;20442;-76
2023/04/23 05:30:30;;;;;;;1.53;1.43;;;;;;;;;;5008574;28;20455;-77
2023/04/23 05:32:57;;;;;;;0.60;0.60;;;;;;;;;;5006019;28;20445;-76
2023/04/23 05:35:23;;;;;;;0.80;0.80;;;;;;;;;;5006425;28;20500;-78
2023/04/23 05:37:50;;;;;;;0.60;0.57;;;;;;;;;;5005852;28;20446;-77
2023/04/23 05:40:18;;;;;;;0.60;0.60;;;;;;;;;;5007518;28;20450;-75
2023/04/23 05:42:45;;;;;;;0.60;0.60;;;;;;;;;;5001584;28;20442;-76
2023/04/23 05:45:11;;;;;;;2.60;1.47;;;;;;;;;;5004697;28;20438;-75
2023/04/23 05:47:38;;;;;;;0.70;0.60;;;;;;;;;;5003851;28;20442;-75
2023/04/23 05:50:06;;;;;;;0.60;0.60;;;;;;;;;;5005070;28;20479;-76
2023/04/23 05:52:35;;;;;;;0.67;0.67;;;;;;;;;;5002823;28;20466;-77
2023/04/23 05:55:02;;;;;;;0.90;0.90;;;;;;;;;;5002765;28;20482;-76
2023/04/23 05:57:30;;;;;;;0.60;0.60;;;;;;;;;;5009691;28;20472;-76
2023/04/23 05:59:57;;;;;;;0.70;0.67;;;;;;;;;;5004329;28;20502;-76
2023/04/23 06:02:24;;;;;;;0.70;0.60;;;;;;;;;;5006743;28;20859;-75
2023/04/23 06:04:51;;;;;;;0.60;0.60;;;;;;;;;;5007262;28;20438;-77
2023/04/23 06:07:18;;;;;;;3.37;1.87;;;;;;;;;;5005476;28;20464;-77
2023/04/23 06:09:44;;;;;;;0.70;0.70;;;;;;;;;;5005984;28;20434;-76
2023/04/23 06:12:11;;;;;;;1.27;1.20;;;;;;;;;;5005779;28;20546;-75
2023/04/23 06:14:39;;;;;;;0.70;0.70;;;;;;;;;;5008385;28;20466;-77
2023/04/23 06:17:06;;;;;;;0.70;0.70;;;;;;;;;;5015539;28;20446;-77
2023/04/23 06:19:33;;;;;;;0.70;0.60;;;;;;;;;;5013420;28;20939;-77
2023/04/23 06:21:59;;;;;;;0.70;0.70;;;;;;;;;;5011126;28;20488;-76
2023/04/23 06:24:26;;;;;;;0.70;0.60;;;;;;;;;;5014543;28;20531;-77
2023/04/23 06:26:52;;;;;;;1.53;1.43;;;;;;;;;;5012409;28;20514;-78
2023/04/23 06:29:20;;;;;;;0.70;0.67;;;;;;;;;;5013292;28;20457;-75
2023/04/23 06:31:55;;;;;;;0.70;0.70;;;;;;;;;;5009185;28;20445;-75
2023/04/23 06:34:22;;;;;;;0.70;0.60;;;;;;;;;;5015286;28;20433;-78
2023/04/23 06:36:49;;;;;;;1.53;1.00;;;;;;;;;;5014062;28;20529;-75
2023/04/23 06:39:16;;;;;;;0.70;0.60;;;;;;;;;;5004337;28;20456;-77
2023/04/23 06:41:42;;;;;;;0.70;0.60;;;;;;;;;;5004725;28;20489;-76
2023/04/23 06:44:21;;;;;;;0.70;0.60;;;;;;;;;;5010220;28;20859;-77
2023/04/23 06:46:50;;;;;;;0.80;0.73;;;;;;;;;;4997214;28;20449;-77
2023/04/23 06:49:18;;;;;;;8.70;2.03;;;;;;;;;;5003337;28;20456;-76
2023/04/23 06:51:45;;;;;;;0.70;0.70;;;;;;;;;;5013023;28;20477;-76
2023/04/23 06:54:12;;;;;;;0.70;0.60;;;;;;;;;;5015712;28;20449;-77
2023/04/23 06:56:38;;;;;;;0.70;0.60;;;;;;;;;;5008014;28;20480;-77
2023/04/23 06:59:05;;;;;;;0.70;0.67;;;;;;;;;;5012087;28;20455;-77
2023/04/23 07:01:34;;;;;;;0.80;0.80;;;;;;;;;;5008013;28;20438;-75
2023/04/23 07:04:01;;;;;;;0.70;0.70;;;;;;;;;;5007797;28;20434;-76
2023/04/23 07:06:30;;;;;;;0.70;0.60;;;;;;;;;;5011399;28;20822;-77
2023/04/23 07:08:57;;;;;;;0.70;0.60;;;;;;;;;;5013017;28;20458;-77
2023/04/23 07:11:24;;;;;;;0.73;0.70;;;;;;;;;;5008966;28;20449;-77
2023/04/23 07:13:51;;;;;;;0.70;0.70;;;;;;;;;;5009603;28;20433;-76
2023/04/23 07:16:18;;;;;;;0.70;0.70;;;;;;;;;;5017028;28;20540;-75
2023/04/23 07:18:47;;;;;;;1.03;1.03;;;;;;;;;;5012294;28;20448;-76
2023/04/23 07:21:14;;;;;;;0.70;0.60;;;;;;;;;;5007701;28;20515;-76
2023/04/23 07:23:45;;;;;;;0.80;0.70;;;;;;;;;;4987629;28;20850;-77
2023/04/23 07:26:12;;;;;;;0.80;0.80;;;;;;;;;;5006648;28;20428;-77
2023/04/23 07:28:38;;;;;;;1.23;1.13;;;;;;;;;;5007486;28;20957;-76
2023/04/23 07:31:05;;;;;;;0.70;0.70;;;;;;;;;;5005437;28;20453;-76
2023/04/23 07:33:32;;;;;;;0.70;0.70;;;;;;;;;;5005652;28;20438;-76
2023/04/23 07:35:58;;;;;;;2.50;1.47;;;;;;;;;;4999979;28;21026;-76
2023/04/23 07:38:25;;;;;;;0.70;0.70;;;;;;;;;;5000389;28;20922;-75
2023/04/23 07:40:53;;;;;;;1.60;1.50;;;;;;;;;;5001874;28;20434;-77
2023/04/23 07:43:20;;;;;;;0.80;0.80;;;;;;;;;;4994815;28;20448;-76
2023/04/23 07:45:48;;;;;;;0.70;0.60;;;;;;;;;;4996966;28;20441;-75
2023/04/23 07:48:14;;;;;;;0.70;0.60;;;;;;;;;;5001253;28;21494;-75
2023/04/23 07:50:41;;;;;;;0.80;0.80;;;;;;;;;;5000034;28;20448;-76
2023/04/23 07:53:08;;;;;;;0.70;0.70;;;;;;;;;;5001706;28;20471;-75
2023/04/23 07:55:34;;;;;;;0.80;0.80;;;;;;;;;;4998175;28;20473;-76
2023/04/23 07:58:02;;;;;;;0.83;0.83;;;;;;;;;;4998731;28;20887;-77
2023/04/23 08:00:29;;;;;;;0.70;0.70;;;;;;;;;;5002100;28;20430;-77
2023/04/23 08:02:57;;;;;;;0.70;0.70;;;;;;;;;;4997718;28;20945;-77
2023/04/23 08:05:25;;;;;;;0.70;0.60;;;;;;;;;;4999392;28;20440;-76
2023/04/23 08:07:52;;;;;;;0.70;0.67;;;;;;;;;;5000636;28;20462;-77
2023/04/23 08:10:19;;;;;;;0.80;0.70;;;;;;;;;;5002066;28;20437;-75
2023/04/23 08:12:46;;;;;;;0.70;0.70;;;;;;;;;;4999298;28;20472;-75
2023/04/23 08:15:14;;;;;;;0.77;0.73;;;;;;;;;;4998528;28;20882;-77
2023/04/23 08:17:43;;;;;;;0.70;0.60;;;;;;;;;;5002271;28;20439;-75
2023/04/23 08:20:10;;;;;;;1.10;1.03;;;;;;;;;;5003445;28;20869;-76
2023/04/23 08:22:36;;;;;;;2.10;2.00;;;;;;;;;;5005235;28;20867;-75
2023/04/23 08:25:03;;;;;;;1.67;1.57;;;;;;;;;;5002987;28;20454;-75
2023/04/23 08:27:30;;;;;;;0.70;0.70;;;;;;;;;;5003022;28;20439;-76
2023/04/23 08:29:56;;;;;;;0.80;0.80;;;;;;;;;;5001987;28;20457;-76
2023/04/23 08:32:24;;;;;;;0.80;0.80;;;;;;;;;;4999535;28;20442;-77
2023/04/23 08:34:51;;;;;;;0.80;0.80;;;;;;;;;;5004894;28;20433;-77
2023/04/23 08:37:18;;;;;;;0.80;0.70;;;;;;;;;;5001519;28;20465;-76
2023/04/23 08:39:57;;;;;;;1.30;1.20;;;;;;;;;;5002837;28;20525;-78
2023/04/23 08:42:29;;;;;;;0.80;0.80;;;;;;;;;;5010330;28;20438;-75
2023/04/23 08:44:58;;;;;;;0.70;0.70;;;;;;;;;;5006413;28;20768;-78
2023/04/23 08:47:28;;;;;;;0.70;0.70;;;;;;;;;;5008159;28;20446;-77
2023/04/23 08:49:57;;;;;;;0.70;0.60;;;;;;;;;;5006454;28;20798;-76
2023/04/23 08:52:28;;;;;;;0.80;0.70;;;;;;;;;;5006771;28;20464;-76
2023/04/23 08:55:00;;;;;;;1.13;1.07;;;;;;;;;;5005083;28;20599;-76
2023/04/23 08:57:27;;;;;;;0.70;0.60;;;;;;;;;;5002469;28;20441;-76
2023/04/23 08:59:54;;;;;;;0.80;0.80;;;;;;;;;;5009595;28;20458;-78
2023/04/23 09:02:24;;;;;;;0.80;0.70;;;;;;;;;;5006518;28;20780;-76
2023/04/23 09:04:53;;;;;;;0.90;0.80;;;;;;;;;;5008746;28;20450;-74
2023/04/23 09:07:22;;;;;;;0.90;0.80;;;;;;;;;;5000124;28;20457;-76
2023/04/23 09:09:48;;;;;;;0.70;0.70;;;;;;;;;;5003812;28;20932;-76
2023/04/23 09:12:15;;;;;;;0.70;0.70;;;;;;;;;;4998521;28;20423;-75
2023/04/23 09:14:42;;;;;;;0.70;0.60;;;;;;;;;;5003078;28;20479;-75
2023/04/23 09:17:09;;;;;;;0.70;0.60;;;;;;;;;;5000896;28;20491;-75
2023/04/23 09:19:37;;;;;;;0.70;0.60;;;;;;;;;;5001140;28;20445;-77
2023/04/23 09:22:06;;;;;;;0.80;0.70;;;;;;;;;;5000080;28;20532;-80
2023/04/23 09:24:33;;;;;;;0.70;0.70;;;;;;;;;;5002683;28;20531;-76
2023/04/23 09:26:59;;;;;;;0.70;0.60;;;;;;;;;;5001438;28;20417;-78
2023/04/23 09:29:26;;;;;;;0.77;0.70;;;;;;;;;;5002375;28;20464;-76
2023/04/23 09:31:54;;;;;;;0.70;0.70;;;;;;;;;;4999751;28;20517;-77
2023/04/23 09:34:21;;;;;;;0.80;0.70;;;;;;;;;;5001487;28;20433;-74
2023/04/23 09:36:49;;;;;;;0.83;0.83;;;;;;;;;;4999880;28;20475;-76
2023/04/23 09:39:18;;;;;;;0.70;0.70;;;;;;;;;;5001256;28;20503;-76
2023/04/23 09:41:45;;;;;;;1.20;0.90;;;;;;;;;;5004122;28;20430;-76
2023/04/23 09:44:16;;;;;;;0.80;0.70;;;;;;;;;;5000522;28;20425;-77
2023/04/23 09:46:43;;;;;;;0.70;0.60;;;;;;;;;;4997262;28;20431;-77
2023/04/23 09:49:11;;;;;;;0.80;0.80;;;;;;;;;;5003001;28;20445;-76
2023/04/23 09:51:39;;;;;;;0.83;0.83;;;;;;;;;;5005582;28;20801;-76
2023/04/23 09:54:10;;;;;;;0.80;0.80;;;;;;;;;;5001073;28;20438;-76
2023/04/23 09:56:38;;;;;;;0.70;0.70;;;;;;;;;;4999297;28;20857;-76
2023/04/23 09:59:18;;;;;;;0.70;0.70;;;;;;;;;;5003746;28;20450;-78
2023/04/23 10:01:45;;;;;;;0.70;0.70;;;;;;;;;;5007560;28;20449;-78
2023/04/23 10:04:17;;;;;;;1.47;1.37;;;;;;;;;;4999831;28;20445;-73
2023/04/23 10:06:45;;;;;;;0.70;0.60;;;;;;;;;;5005249;28;20425;-75
2023/04/23 10:09:33;;;;;;;0.80;0.70;;;;;;;;;;5004084;28;20487;-78
2023/04/23 10:12:01;;;;;;;0.70;0.60;;;;;;;;;;4999719;28;20834;-76
2023/04/23 10:14:28;;;;;;;0.80;0.70;;;;;;;;;;5000833;28;20452;-78
2023/04/23 10:16:56;;;;;;;0.70;0.70;;;;;;;;;;5000745;28;20942;-79
2023/04/23 10:19:24;;;;;;;0.70;0.70;;;;;;;;;;5005899;28;20464;-78
2023/04/23 10:21:54;;;;;;;0.70;0.60;;;;;;;;;;5005347;28;20528;-79
2023/04/23 10:24:35;;;;;;;0.70;0.70;;;;;;;;;;5010629;28;20469;-79
2023/04/23 10:27:04;;;;;;;0.70;0.60;;;;;;;;;;5011072;28;20525;-80
2023/04/23 10:29:33;;;;;;;0.80;0.77;;;;;;;;;;5011251;28;20479;-76
2023/04/23 10:32:02;;;;;;;0.80;0.70;;;;;;;;;;5004620;28;20902;-80
2023/04/23 10:34:29;;;;;;;0.70;0.70;;;;;;;;;;5000447;28;20434;-77
2023/04/23 10:36:58;;;;;;;0.70;0.60;;;;;;;;;;5003581;28;20513;-80
2023/04/23 10:39:25;;;;;;;0.80;0.80;;;;;;;;;;5009010;28;20483;-79
2023/04/23 10:42:12;;;;;;;0.70;0.70;;;;;;;;;;5004226;28;20413;-79
2023/04/23 10:44:41;;;;;;;0.73;0.67;;;;;;;;;;5004574;28;20809;-81
2023/04/23 10:47:11;;;;;;;0.70;0.70;;;;;;;;;;5011359;28;20422;-76
2023/04/23 10:49:38;;;;;;;0.80;0.73;;;;;;;;;;5017882;28;20425;-81
2023/04/23 10:52:07;;;;;;;0.70;0.60;;;;;;;;;;5001863;28;20864;-81
2023/04/23 10:54:48;;;;;;;0.80;0.73;;;;;;;;;;4999917;28;20439;-78
2023/04/23 10:57:16;;;;;;;0.70;0.70;;;;;;;;;;5002262;28;20913;-80
2023/04/23 10:59:50;;;;;;;0.70;0.70;;;;;;;;;;5002694;28;20817;-79
2023/04/23 11:02:18;;;;;;;0.70;0.67;;;;;;;;;;5012781;28;20401;-78
2023/04/23 11:04:45;;;;;;;0.70;0.60;;;;;;;;;;5005234;28;20493;-79
2023/04/23 11:07:12;;;;;;;0.70;0.60;;;;;;;;;;5005199;28;20447;-76
2023/04/23 11:09:41;;;;;;;0.70;0.70;;;;;;;;;;5005671;28;20440;-77
2023/04/23 11:12:09;;;;;;;0.70;0.60;;;;;;;;;;5004740;28;20413;-81
2023/04/23 11:14:46;;;;;;;0.70;0.70;;;;;;;;;;5003684;28;20815;-76
2023/04/23 11:17:14;;;;;;;0.70;0.60;;;;;;;;;;4999404;28;20466;-80
2023/04/23 11:20:01;;;;;;;0.70;0.60;;;;;;;;;;4999746;28;20413;-78
2023/04/23 11:22:33;;;;;;;0.70;0.60;;;;;;;;;;4999511;28;20815;-81
2023/04/23 11:25:00;;;;;;;0.80;0.70;;;;;;;;;;4995979;28;20884;-81
2023/04/23 11:27:28;;;;;;;0.80;0.70;;;;;;;;;;5003687;28;20434;-77
2023/04/23 11:29:56;;;;;;;0.70;0.60;;;;;;;;;;4997158;28;20518;-77
2023/04/23 11:32:28;;;;;;;0.70;0.60;;;;;;;;;;4997563;28;20412;-77
2023/04/23 11:34:57;;;;;;;0.80;0.70;;;;;;;;;;4998375;28;20432;-77
2023/04/23 11:37:24;;;;;;;1.67;1.57;;;;;;;;;;5004446;28;20465;-80
2023/04/23 11:39:51;;;;;;;0.70;0.60;;;;;;;;;;4986331;28;20765;-80
2023/04/23 11:42:21;;;;;;;0.80;0.70;;;;;;;;;;5013903;28;20462;-75
2023/04/23 11:44:47;;;;;;;0.70;0.60;;;;;;;;;;4997540;28;20489;-78
2023/04/23 11:47:17;;;;;;;0.70;0.70;;;;;;;;;;5000538;28;20436;-78
2023/04/23 11:49:44;;;;;;;0.70;0.70;;;;;;;;;;4999156;28;20810;-79
2023/04/23 11:52:11;;;;;;;0.70;0.60;;;;;;;;;;5006053;28;20469;-80
2023/04/23 11:54:39;;;;;;;0.70;0.70;;;;;;;;;;5005682;28;20448;-80
2023/04/23 11:57:07;;;;;;;0.70;0.70;;;;;;;;;;5009051;28;20506;-80
2023/04/23 11:59:34;;;;;;;0.70;0.70;;;;;;;;;;5015375;28;20428;-79
2023/04/23 12:02:01;;;;;;;0.70;0.70;;;;;;;;;;5008681;28;20468;-81
2023/04/23 12:04:30;;;;;;;0.70;0.60;;;;;;;;;;5013892;28;20442;-80
2023/04/23 12:06:57;;;;;;;0.70;0.60;;;;;;;;;;5004477;28;20433;-79
2023/04/23 12:09:25;;;;;;;0.80;0.70;;;;;;;;;;5004967;28;20494;-80
2023/04/23 12:11:52;;;;;;;0.70;0.60;;;;;;;;;;5005410;28;20445;-82
2023/04/23 12:14:25;;;;;;;0.70;0.60;;;;;;;;;;5010873;28;20539;-78
2023/04/23 12:16:52;;;;;;;0.70;0.60;;;;;;;;;;4990471;28;20460;-77
2023/04/23 12:19:19;;;;;;;0.80;0.80;;;;;;;;;;5004909;28;20413;-77
2023/04/23 12:21:48;;;;;;;0.70;0.60;;;;;;;;;;5002986;28;20424;-76
2023/04/23 12:24:16;;;;;;;0.70;0.60;;;;;;;;;;5003755;28;20447;-77
2023/04/23 12:26:43;;;;;;;0.70;0.67;;;;;;;;;;4990375;28;20478;-76
2023/04/23 12:29:11;;;;;;;0.70;0.60;;;;;;;;;;5010028;28;20424;-77
2023/04/23 12:31:41;;;;;;;0.80;0.70;;;;;;;;;;5008141;28;20532;-76
2023/04/23 12:34:09;;;;;;;0.70;0.60;;;;;;;;;;5005973;28;20423;-78
2023/04/23 12:36:37;;;;;;;0.80;0.70;;;;;;;;;;5010904;28;20467;-76
2023/04/23 12:39:21;;;;;;;0.70;0.67;;;;;;;;;;4990174;28;20490;-78
2023/04/23 12:41:50;;;;;;;0.70;0.60;;;;;;;;;;4988711;28;20523;-77
2023/04/23 12:44:16;;;;;;;0.70;0.60;;;;;;;;;;4995049;28;20447;-75
2023/04/23 12:46:43;;;;;;;0.70;0.70;;;;;;;;;;5006097;28;20431;-76
2023/04/23 12:49:11;;;;;;;0.80;0.70;;;;;;;;;;5007381;28;20485;-77
2023/04/23 12:51:39;;;;;;;0.70;0.60;;;;;;;;;;5003618;28;20469;-80
2023/04/23 12:54:07;;;;;;;0.70;0.60;;;;;;;;;;5007289;28;20446;-76
2023/04/23 12:56:36;;;;;;;0.70;0.60;;;;;;;;;;5002525;28;20470;-79
2023/04/23 12:59:04;;;;;;;0.70;0.60;;;;;;;;;;5004498;28;20453;-77
2023/04/23 13:01:31;;;;;;;0.70;0.70;;;;;;;;;;5004401;28;20943;-76
2023/04/23 13:03:58;;;;;;;0.80;0.70;;;;;;;;;;5004954;28;20442;-77
2023/04/23 13:06:25;;;;;;;0.70;0.70;;;;;;;;;;5004906;28;20455;-77
2023/04/23 13:08:54;;;;;;;0.70;0.70;;;;;;;;;;5004512;28;20413;-76
2023/04/23 13:11:21;;;;;;;0.70;0.70;;;;;;;;;;5006156;28;20433;-78
2023/04/23 13:13:50;;;;;;;0.70;0.60;;;;;;;;;;5013230;28;20515;-78
2023/04/23 13:16:17;;;;;;;0.70;0.63;;;;;;;;;;5007654;28;20438;-77
2023/04/23 13:18:44;;;;;;;0.70;0.60;;;;;;;;;;5010774;28;20491;-75
2023/04/23 13:21:12;;;;;;;0.80;0.70;;;;;;;;;;5009751;28;20515;-76
2023/04/23 13:23:39;;;;;;;0.80;0.80;;;;;;;;;;5010767;28;20447;-76
2023/04/23 13:26:07;;;;;;;0.70;0.70;;;;;;;;;;5009983;28;20497;-75
2023/04/23 13:28:35;;;;;;;0.80;0.70;;;;;;;;;;5013471;28;20410;-76
2023/04/23 13:31:05;;;;;;;0.80;0.70;;;;;;;;;;5009049;28;20446;-74
2023/04/23 13:33:31;;;;;;;0.80;0.70;;;;;;;;;;5001108;28;20910;-77
2023/04/23 13:35:59;;;;;;;0.80;0.77;;;;;;;;;;5010387;28;20515;-76
2023/04/23 13:38:27;;;;;;;0.70;0.70;;;;;;;;;;5008901;28;20605;-74
2023/04/23 13:40:54;;;;;;;0.80;0.70;;;;;;;;;;5006686;28;20456;-75
2023/04/23 13:43:21;;;;;;;0.80;0.80;;;;;;;;;;5012226;28;20444;-77
2023/04/23 13:45:48;;;;;;;1.00;0.90;;;;;;;;;;5008691;28;20433;-75
2023/04/23 13:48:16;;;;;;;0.77;0.70;;;;;;;;;;5007966;28;20446;-78
2023/04/23 13:50:43;;;;;;;0.70;0.60;;;;;;;;;;5009609;28;20433;-78
2023/04/23 13:53:12;;;;;;;0.70;0.70;;;;;;;;;;5029778;28;20469;-78
2023/04/23 13:55:38;;;;;;;0.70;0.63;;;;;;;;;;5009545;28;20473;-77
2023/04/23 13:58:05;;;;;;;0.70;0.60;;;;;;;;;;5014127;28;20490;-80
2023/04/23 14:00:33;;;;;;;0.80;0.70;;;;;;;;;;5011010;28;20463;-76
2023/04/23 14:02:59;;;;;;;0.77;0.70;;;;;;;;;;5001989;28;20447;-77
2023/04/23 14:05:28;;;;;;;0.80;0.70;;;;;;;;;;5012900;28;20457;-76
2023/04/23 14:07:55;;;;;;;0.70;0.60;;;;;;;;;;5008892;28;20541;-76
2023/04/23 14:10:22;;;;;;;0.80;0.70;;;;;;;;;;5006884;28;20442;-77
2023/04/23 14:12:50;;;;;;;0.70;0.70;;;;;;;;;;5010011;28;20811;-77
2023/04/23 14:15:19;;;;;;;0.70;0.67;;;;;;;;;;5010202;28;20439;-76
2023/04/23 14:17:47;;;;;;;0.80;0.70;;;;;;;;;;5011709;28;20513;-75
2023/04/23 14:20:18;;;;;;;0.80;0.70;;;;;;;;;;5004341;28;20590;-77
2023/04/23 14:22:49;;;;;;;0.80;0.70;;;;;;;;;;5002782;28;20838;-77
2023/04/23 14:25:25;;;;;;;0.70;0.70;;;;;;;;;;5009617;28;20441;-77
2023/04/23 14:27:55;;;;;;;0.70;0.67;;;;;;;;;;5006196;28;20924;-78
2023/04/23 14:30:25;;;;;;;0.73;0.70;;;;;;;;;;5003095;28;20525;-77
2023/04/23 14:32:55;;;;;;;0.70;0.70;;;;;;;;;;4999398;28;20435;-76
2023/04/23 14:35:23;;;;;;;0.80;0.80;;;;;;;;;;5006533;28;20462;-78
2023/04/23 14:38:10;;;;;;;0.83;0.83;;;;;;;;;;5014069;28;20474;-79
2023/04/23 14:40:37;;;;;;;0.90;0.90;;;;;;;;;;4999490;28;20453;-77
2023/04/23 14:43:04;;;;;;;0.70;0.60;;;;;;;;;;4999939;28;20481;-76
2023/04/23 14:45:42;;;;;;;0.70;0.70;;;;;;;;;;5001219;28;20476;-76
2023/04/23 14:48:08;;;;;;;0.80;0.80;;;;;;;;;;5009774;28;20438;-77